Latest Coastal Weather Observations for Hindmarsh Island

IDS60701

Issued at 6:51 pm CST Monday 24 April 2017 (issued every 10 minutes, with the page automatically refreshed every 10 minutes)

About coastal observations | Map of coastal stations | Coastal observations for SA | Marine services | Other Formats
Station Details ID: 023894 Name: HINDMARSH ISLAND AWS Lat: -35.52 Lon: 138.82 Height: 11.0 m
Data from the previous 72 hours. | See also: Recent months at Hindmarsh Island
Date/Time
CST
Temp
°C
Wind Pressure Rain since
9am
mm
Weather Cloud Vis
km
Sea
Height
m
Swell
Dir  Spd
kts
Gust
kts
hPa Trend Height
m
Period
s
Dir
24/06:30pm 19.1 WSW 6 7 1012.8 - 0.0 - - - - - - -
24/06:00pm 19.4 W 7 9 1012.7 - 0.0 - - - - - - -
24/05:30pm 19.7 WNW 11 15 1012.3 - 0.0 - - - - - - -
24/05:00pm 19.9 WNW 10 13 1012.4 - 0.0 - - - - - - -
24/04:30pm 19.7 NW 6 11 1012.4 - 0.0 - - - - - - -
24/04:00pm 19.7 NW 10 14 1012.4 - 0.0 - - - - - - -
24/03:30pm 19.9 NW 11 16 1012.6 - 0.0 - - - - - - -
24/03:00pm 20.3 NW 9 11 1012.5 - 0.0 - - - - - - -
24/02:30pm 20.1 NW 7 11 1012.7 - 0.0 - - - - - - -
24/02:00pm 19.4 NE 6 8 1012.9 - 0.0 - - - - - - -
24/01:30pm 19.5 NNE 8 10 1013.3 - 0.0 - - - - - - -
24/01:00pm 19.1 NNE 5 8 1013.9 - 0.0 - - - - - - -
24/12:30pm 18.1 NNE 6 8 1014.7 - 0.0 - - - - - - -
24/12:00pm 17.7 NNE 6 8 1015.4 - 0.0 - - - - - - -
24/11:30am 17.5 NNE 5 7 1015.9 - 0.0 - - - - - - -
24/11:00am 17.1 N 7 9 1016.4 - 0.0 - - - - - - -
24/10:30am 16.9 NNE 7 9 1016.6 - 0.0 - - - - - - -
24/10:00am 16.8 NE 7 8 1016.9 - 0.0 - - - - - - -
24/09:30am 16.6 ENE 6 8 1017.4 - 0.0 - - - - - - -
24/09:00am 16.4 ENE 7 8 1017.8 - 5.6 - - - - - - -
24/08:30am 16.2 E 6 7 1017.9 - 5.6 - - - - - - -
24/08:00am 16.0 E 7 8 1017.9 - 5.6 - - - - - - -
24/07:30am 15.9 E 7 8 1017.9 - 5.6 - - - - - - -
24/07:00am 15.9 ESE 8 11 1017.8 - 5.6 - - - - - - -
24/06:30am 16.0 SSE 7 8 1018.1 - 5.6 - - - - - - -
24/06:00am 15.5 SE 3 5 1018.3 - 5.6 - - - - - - -
24/05:30am 15.5 ESE 7 8 1018.2 - 5.6 - - - - - - -
24/05:00am 16.0 SE 4 7 1018.4 - 5.6 - - - - - - -
24/04:30am 16.2 SSW 3 5 1018.5 - 4.6 - - - - - - -
24/04:00am 16.3 ENE 1 3 1018.7 - 2.6 - - - - - - -
24/03:30am 16.5 SSE 3 4 1018.7 - 2.4 - - - - - - -
24/03:00am 16.5 W 1 3 1019.2 - 2.4 Recent precip. - - - - - -
24/02:30am 17.0 WNW 3 6 1019.4 - 2.2 - - - - - - -
24/02:00am 17.2 CALM 0 0 1019.6 - 1.4 - - - - - - -
24/01:30am 17.0 N 3 5 1020.0 - 0.4 - - - - - - -
24/01:00am 16.8 NE 6 8 1020.2 - 0.2 - - - - - - -
24/12:30am 17.3 NNE 5 6 1020.3 - 0.0 - - - - - - -
24/12:00am 17.5 NNE 2 4 1020.5 - 0.0 - - - - - - -
 
Date/Time
CST
Temp
°C
Wind Pressure Rain since
9am
mm
Weather Cloud Vis
km
Sea
Height
m
Swell
Dir  Spd
kts
Gust
kts
hPa Trend Height
m
Period
s
Dir
23/11:30pm 17.6 NNE 3 4 1020.8 - 0.0 - - - - - - -
23/11:00pm 17.6 CALM 0 3 1020.7 - 0.0 - - - - - - -
23/10:30pm 17.8 N 1 3 1020.8 - 0.0 - - - - - - -
23/10:00pm 17.9 NW 4 5 1021.1 - 0.0 - - - - - - -
23/09:30pm 17.8 CALM 0 3 1021.2 - 0.0 - - - - - - -
23/09:00pm 18.0 ESE 5 7 1021.4 - 0.0 - - - - - - -
23/08:30pm 18.3 SE 8 9 1021.3 - 0.0 - - - - - - -
23/08:00pm 18.2 SSE 5 7 1021.3 - 0.0 - - - - - - -
23/07:30pm 18.2 SE 9 12 1021.2 - 0.0 - - - - - - -
23/07:00pm 18.3 SE 11 13 1020.9 - 0.0 - - - - - - -
23/06:30pm 18.4 SSE 7 8 1021.0 - 0.0 - - - - - - -
23/06:00pm 18.4 SSE 9 12 1020.8 - 0.0 - - - - - - -
23/05:30pm 18.8 SSE 11 13 1020.6 - 0.0 - - - - - - -
23/05:00pm 18.9 SSE 10 12 1020.6 - 0.0 - - - - - - -
23/04:30pm 18.9 SSE 10 11 1020.8 - 0.0 - - - - - - -
23/04:00pm 19.3 SSE 11 13 1020.7 - 0.0 - - - - - - -
23/03:30pm 19.2 SSE 13 14 1020.7 - 0.0 - - - - - - -
23/03:00pm 19.8 SSE 11 13 1020.7 - 0.0 - - - - - - -
23/02:30pm 19.6 SSE 12 14 1020.7 - 0.0 - - - - - - -
23/02:00pm 20.4 SSE 9 11 1020.8 - 0.0 - - - - - - -
23/01:30pm 20.4 SSE 9 11 1021.0 - 0.0 - - - - - - -
23/01:00pm 20.1 SSE 9 11 1021.5 - 0.0 - - - - - - -
23/12:30pm 20.1 SE 8 10 1022.1 - 0.0 - - - - - - -
23/12:00pm 19.5 SSE 9 11 1022.5 - 0.0 - - - - - - -
23/11:30am 20.4 SE 7 9 1022.7 - 0.0 - - - - - - -
23/11:00am 20.4 NE 4 6 1023.2 - 0.0 - - - - - - -
23/10:30am 18.9 E 5 8 1023.4 - 0.0 - - - - - - -
23/10:00am 18.1 ESE 6 8 1023.6 - 0.0 - - - - - - -
23/09:30am 17.0 ENE 5 7 1024.0 - 0.0 - - - - - - -
23/09:00am 16.6 ESE 5 6 1023.9 - 0.2 - - - - - - -
23/08:30am 16.4 CALM 0 0 1023.9 - 0.2 - - - - - - -
23/08:00am 15.8 CALM 0 0 1023.6 - 0.2 - - - - - - -
23/07:30am 15.4 CALM 0 0 1023.3 - 0.2 - - - - - - -
23/07:00am 14.8 ENE 4 5 1023.0 - 0.2 - - - - - - -
23/06:30am 15.0 ENE 2 4 1023.0 - 0.2 - - - - - - -
23/06:00am 14.9 ENE 3 4 1022.8 - 0.2 - - - - - - -
23/05:30am 15.0 E 3 4 1022.6 - 0.2 - - - - - - -
23/05:00am 14.9 E 6 7 1022.3 - 0.2 - - - - - - -
23/04:30am 14.7 E 7 8 1022.2 - 0.2 - - - - - - -
23/04:00am 14.4 E 6 7 1022.1 - 0.2 - - - - - - -
23/03:30am 15.5 E 5 5 1022.1 - 0.2 - - - - - - -
23/03:00am 15.4 ENE 4 5 1022.2 - 0.2 - - - - - - -
23/02:30am 15.9 ENE 3 3 1022.5 - 0.2 - - - - - - -
23/02:00am 15.8 ENE 5 5 1022.7 - 0.2 - - - - - - -
23/01:30am 16.1 ENE 5 6 1023.0 - 0.2 - - - - - - -
23/01:00am 16.5 CALM 0 0 1023.2 - 0.2 - - - - - - -
23/12:30am 16.7 WNW 3 4 1023.4 - 0.2 - - - - - - -
23/12:00am 16.8 N 3 4 1023.4 - 0.2 - - - - - - -
 
Date/Time
CST
Temp
°C
Wind Pressure Rain since
9am
mm
Weather Cloud Vis
km
Sea
Height
m
Swell
Dir  Spd
kts
Gust
kts
hPa Trend Height
m
Period
s
Dir
22/11:30pm 16.9 ENE 3 4 1023.5 - 0.2 - - - - - - -
22/11:00pm 17.1 ENE 4 5 1023.7 - 0.2 - - - - - - -
22/10:30pm 17.6 SE 8 10 1023.8 - 0.2 - - - - - - -
22/10:00pm 17.6 SE 10 12 1023.7 - 0.2 - - - - - - -
22/09:30pm 17.7 SE 10 12 1023.7 - 0.2 - - - - - - -
22/09:00pm 17.7 SE 10 13 1023.5 - 0.2 - - - - - - -
22/08:30pm 17.7 SE 11 14 1023.3 - 0.2 - - - - - - -
22/08:00pm 17.5 SE 11 13 1023.0 - 0.2 - - - - - - -
22/07:30pm 17.5 SE 10 13 1022.9 - 0.2 - - - - - - -
22/07:00pm 17.6 SSE 11 13 1022.7 - 0.2 - - - - - - -
22/06:30pm 17.6 SSE 11 13 1022.6 - 0.2 - - - - - - -
22/06:00pm 17.6 SSE 11 14 1022.3 - 0.2 - - - - - - -
22/05:30pm 17.9 SSE 12 15 1022.1 - 0.2 - - - - - - -
22/05:00pm 18.2 SSE 12 14 1022.0 - 0.2 - - - - - - -
22/04:30pm 18.6 SSE 12 14 1022.1 - 0.2 - - - - - - -
22/04:00pm 19.0 SSE 12 15 1022.0 - 0.2 - - - - - - -
22/03:30pm 18.4 SSE 12 15 1021.8 - 0.2 - - - - - - -
22/03:00pm 18.9 SSE 12 15 1021.8 - 0.2 - - - - - - -
22/02:30pm 19.5 SSE 12 13 1022.0 - 0.2 - - - - - - -
22/02:00pm 19.7 SSE 13 14 1022.0 - 0.2 - - - - - - -
22/01:30pm 19.8 SSE 12 15 1022.2 - 0.2 - - - - - - -
22/01:00pm 19.9 SSE 10 12 1022.6 - 0.2 - - - - - - -
22/12:30pm 20.0 SSE 10 12 1022.8 - 0.2 - - - - - - -
22/12:00pm 20.3 SSE 9 11 1023.2 - 0.2 Recent precip. - - - - - -
22/11:30am 20.2 SE 8 11 1023.5 - 0.0 - - - - - - -
22/11:00am 19.6 SE 9 11 1023.7 - 0.0 - - - - - - -
22/10:30am 19.0 SSE 7 9 1023.9 - 0.0 - - - - - - -
22/10:00am 18.6 SSE 6 7 1024.0 - 0.0 - - - - - - -
22/09:30am 19.0 NNE 1 5 1024.1 - 0.0 - - - - - - -
22/09:00am 17.4 NNW 5 5 1024.0 - 0.0 - - - - - - -
22/08:30am 16.3 NW 5 6 1023.9 - 0.0 - - - - - - -
22/08:00am 15.6 NNW 5 6 1023.5 - 0.0 - - - - - - -
22/07:30am 14.8 NNW 5 6 1023.2 - 0.0 - - - - - - -
22/07:00am 14.3 NNW 5 6 1023.0 - 0.0 - - - - - - -
22/06:30am 13.8 N 6 7 1022.8 - 0.0 - - - - - - -
22/06:00am 13.2 N 7 7 1022.5 - 0.0 - - - - - - -
22/05:30am 13.2 N 7 8 1022.3 - 0.0 - - - - - - -
22/05:00am 13.3 NNW 6 6 1022.1 - 0.0 - - - - - - -
22/04:30am 13.9 NW 6 6 1021.9 - 0.0 - - - - - - -
22/04:00am 14.1 WNW 4 5 1021.9 - 0.0 - - - - - - -
22/03:30am 14.1 WNW 5 6 1021.9 - 0.0 - - - - - - -
22/03:00am 14.4 WNW 6 6 1021.8 - 0.0 - - - - - - -
22/02:30am 14.2 WNW 5 6 1021.9 - 0.0 - - - - - - -
22/02:00am 14.5 WNW 5 6 1022.0 - 0.0 - - - - - - -
22/01:30am 14.8 NW 5 6 1022.2 - 0.0 - - - - - - -
22/01:00am 15.0 NW 5 5 1022.3 - 0.0 - - - - - - -
22/12:30am 15.3 WNW 3 4 1022.2 - 0.0 - - - - - - -
22/12:00am 15.9 WNW 4 6 1022.3 - 0.0 - - - - - - -
 
Date/Time
CST
Temp
°C
Wind Pressure Rain since
9am
mm
Weather Cloud Vis
km
Sea
Height
m
Swell
Dir  Spd
kts
Gust
kts
hPa Trend Height
m
Period
s
Dir
21/11:30pm 16.2 W 5 6 1022.3 - 0.0 - - - - - - -
21/11:00pm 16.3 NNW 5 6 1022.6 - 0.0 - - - - - - -
21/10:30pm 16.8 WNW 4 5 1022.7 - 0.0 - - - - - - -
21/10:00pm 17.1 SW 7 8 1022.7 - 0.0 - - - - - - -
21/09:30pm 17.4 SSW 9 10 1022.6 - 0.0 - - - - - - -
21/09:00pm 17.4 SW 7 8 1022.5 - 0.0 - - - - - - -
21/08:30pm 17.6 SSW 9 11 1022.2 - 0.0 - - - - - - -
21/08:00pm 17.7 SW 10 11 1022.0 - 0.0 - - - - - - -
21/07:30pm 17.7 SW 11 13 1021.7 - 0.0 - - - - - - -
21/07:00pm 17.8 SSW 11 14 1021.5 - 0.0 - - - - - - -

Other Formats:

Comma delimited format used in spreadsheet applications
http://www.bom.gov.au/fwo/IDS60701/IDS60701.94677.axf

JavaScript Object Notation format (JSON) in row-major order
http://www.bom.gov.au/fwo/IDS60701/IDS60701.94677.json